sensor_id;sensor_type;location;lat;lon;timestamp;P1;durP1;ratioP1;P2;durP2;ratioP2
22205;SDS011;11272;50.104;8.754;2023-02-28T00:01:17;3.97;;;2.70;;
22205;SDS011;11272;50.104;8.754;2023-02-28T00:03:43;5.57;;;3.00;;
22205;SDS011;11272;50.104;8.754;2023-02-28T00:06:09;3.63;;;2.67;;
22205;SDS011;11272;50.104;8.754;2023-02-28T00:08:35;3.83;;;2.73;;
22205;SDS011;11272;50.104;8.754;2023-02-28T00:11:02;4.17;;;2.80;;
22205;SDS011;11272;50.104;8.754;2023-02-28T00:13:28;4.67;;;2.70;;
22205;SDS011;11272;50.104;8.754;2023-02-28T00:16:10;3.37;;;2.77;;
22205;SDS011;11272;50.104;8.754;2023-02-28T00:18:38;3.80;;;2.70;;
22205;SDS011;11272;50.104;8.754;2023-02-28T00:21:04;2.83;;;2.43;;
22205;SDS011;11272;50.104;8.754;2023-02-28T00:23:31;4.60;;;3.07;;
22205;SDS011;11272;50.104;8.754;2023-02-28T00:25:57;3.70;;;2.63;;
22205;SDS011;11272;50.104;8.754;2023-02-28T00:28:27;4.77;;;2.93;;
22205;SDS011;11272;50.104;8.754;2023-02-28T00:30:54;4.77;;;3.37;;
22205;SDS011;11272;50.104;8.754;2023-02-28T00:33:19;4.87;;;3.30;;
22205;SDS011;11272;50.104;8.754;2023-02-28T00:35:46;4.70;;;3.00;;
22205;SDS011;11272;50.104;8.754;2023-02-28T00:38:16;6.50;;;3.10;;
22205;SDS011;11272;50.104;8.754;2023-02-28T00:40:42;5.37;;;3.30;;
22205;SDS011;11272;50.104;8.754;2023-02-28T00:43:10;7.37;;;3.70;;
22205;SDS011;11272;50.104;8.754;2023-02-28T00:45:36;4.70;;;3.70;;
22205;SDS011;11272;50.104;8.754;2023-02-28T00:48:04;6.77;;;3.67;;
22205;SDS011;11272;50.104;8.754;2023-02-28T00:50:30;4.60;;;3.37;;
22205;SDS011;11272;50.104;8.754;2023-02-28T00:52:56;5.53;;;3.57;;
22205;SDS011;11272;50.104;8.754;2023-02-28T00:55:22;4.43;;;3.40;;
22205;SDS011;11272;50.104;8.754;2023-02-28T00:57:47;4.53;;;3.40;;
22205;SDS011;11272;50.104;8.754;2023-02-28T01:00:13;5.27;;;3.70;;
22205;SDS011;11272;50.104;8.754;2023-02-28T01:02:39;4.67;;;3.30;;
22205;SDS011;11272;50.104;8.754;2023-02-28T01:05:07;4.57;;;3.37;;
22205;SDS011;11272;50.104;8.754;2023-02-28T01:07:33;5.17;;;3.23;;
22205;SDS011;11272;50.104;8.754;2023-02-28T01:09:59;4.87;;;3.33;;
22205;SDS011;11272;50.104;8.754;2023-02-28T01:12:25;4.40;;;3.43;;
22205;SDS011;11272;50.104;8.754;2023-02-28T01:14:51;6.07;;;3.90;;
22205;SDS011;11272;50.104;8.754;2023-02-28T01:17:17;6.77;;;3.73;;
22205;SDS011;11272;50.104;8.754;2023-02-28T01:19:42;7.17;;;3.90;;
22205;SDS011;11272;50.104;8.754;2023-02-28T01:22:09;6.47;;;3.93;;
22205;SDS011;11272;50.104;8.754;2023-02-28T01:24:34;5.30;;;3.73;;
22205;SDS011;11272;50.104;8.754;2023-02-28T01:27:00;5.63;;;3.67;;
22205;SDS011;11272;50.104;8.754;2023-02-28T01:29:26;4.83;;;3.63;;
22205;SDS011;11272;50.104;8.754;2023-02-28T01:31:52;5.07;;;3.50;;
22205;SDS011;11272;50.104;8.754;2023-02-28T01:34:17;5.53;;;3.57;;
22205;SDS011;11272;50.104;8.754;2023-02-28T01:36:44;8.00;;;4.00;;
22205;SDS011;11272;50.104;8.754;2023-02-28T01:39:10;5.87;;;3.90;;
22205;SDS011;11272;50.104;8.754;2023-02-28T01:41:37;5.17;;;3.87;;
22205;SDS011;11272;50.104;8.754;2023-02-28T01:44:06;4.50;;;3.43;;
22205;SDS011;11272;50.104;8.754;2023-02-28T01:46:53;5.87;;;3.40;;
22205;SDS011;11272;50.104;8.754;2023-02-28T01:49:18;6.30;;;3.97;;
22205;SDS011;11272;50.104;8.754;2023-02-28T01:51:45;7.73;;;3.80;;
22205;SDS011;11272;50.104;8.754;2023-02-28T01:54:18;10.33;;;3.80;;
22205;SDS011;11272;50.104;8.754;2023-02-28T01:57:07;5.03;;;3.50;;
22205;SDS011;11272;50.104;8.754;2023-02-28T01:59:43;5.73;;;3.93;;
22205;SDS011;11272;50.104;8.754;2023-02-28T02:02:42;7.03;;;3.90;;
22205;SDS011;11272;50.104;8.754;2023-02-28T02:05:12;6.17;;;3.50;;
22205;SDS011;11272;50.104;8.754;2023-02-28T02:07:45;4.50;;;3.77;;
22205;SDS011;11272;50.104;8.754;2023-02-28T02:10:17;9.37;;;3.90;;
22205;SDS011;11272;50.104;8.754;2023-02-28T02:15:34;4.70;;;3.60;;
22205;SDS011;11272;50.104;8.754;2023-02-28T02:18:29;5.47;;;3.83;;
22205;SDS011;11272;50.104;8.754;2023-02-28T02:26:58;4.90;;;3.30;;
22205;SDS011;11272;50.104;8.754;2023-02-28T02:29:40;6.80;;;3.40;;
22205;SDS011;11272;50.104;8.754;2023-02-28T02:32:26;6.30;;;4.10;;
22205;SDS011;11272;50.104;8.754;2023-02-28T02:35:00;5.00;;;3.77;;
22205;SDS011;11272;50.104;8.754;2023-02-28T02:37:40;5.10;;;3.47;;
22205;SDS011;11272;50.104;8.754;2023-02-28T02:40:27;6.87;;;3.87;;
22205;SDS011;11272;50.104;8.754;2023-02-28T02:43:01;4.73;;;3.63;;
22205;SDS011;11272;50.104;8.754;2023-02-28T02:45:32;5.23;;;3.87;;
22205;SDS011;11272;50.104;8.754;2023-02-28T02:48:16;7.63;;;4.10;;
22205;SDS011;11272;50.104;8.754;2023-02-28T02:50:48;5.80;;;3.70;;
22205;SDS011;11272;50.104;8.754;2023-02-28T02:53:17;7.57;;;4.07;;
22205;SDS011;11272;50.104;8.754;2023-02-28T02:55:47;7.13;;;3.90;;
22205;SDS011;11272;50.104;8.754;2023-02-28T02:58:21;7.80;;;4.13;;
22205;SDS011;11272;50.104;8.754;2023-02-28T03:00:51;5.97;;;3.67;;
22205;SDS011;11272;50.104;8.754;2023-02-28T03:03:20;4.27;;;3.37;;
22205;SDS011;11272;50.104;8.754;2023-02-28T03:05:58;4.63;;;3.20;;
22205;SDS011;11272;50.104;8.754;2023-02-28T03:08:29;5.23;;;3.63;;
22205;SDS011;11272;50.104;8.754;2023-02-28T03:11:02;6.53;;;3.23;;
22205;SDS011;11272;50.104;8.754;2023-02-28T03:16:23;7.50;;;3.90;;
22205;SDS011;11272;50.104;8.754;2023-02-28T03:19:19;5.43;;;3.30;;
22205;SDS011;11272;50.104;8.754;2023-02-28T03:21:55;5.20;;;3.53;;
22205;SDS011;11272;50.104;8.754;2023-02-28T03:24:37;4.07;;;3.00;;
22205;SDS011;11272;50.104;8.754;2023-02-28T03:27:23;5.13;;;3.67;;
22205;SDS011;11272;50.104;8.754;2023-02-28T03:30:42;5.93;;;3.17;;
22205;SDS011;11272;50.104;8.754;2023-02-28T03:38:40;4.50;;;3.10;;
22205;SDS011;11272;50.104;8.754;2023-02-28T03:41:20;5.60;;;3.60;;
22205;SDS011;11272;50.104;8.754;2023-02-28T03:43:53;4.50;;;3.43;;
22205;SDS011;11272;50.104;8.754;2023-02-28T03:46:23;4.40;;;3.20;;
22205;SDS011;11272;50.104;8.754;2023-02-28T03:51:46;4.70;;;3.10;;
22205;SDS011;11272;50.104;8.754;2023-02-28T03:54:15;4.90;;;3.47;;
22205;SDS011;11272;50.104;8.754;2023-02-28T03:59:27;5.17;;;3.40;;
22205;SDS011;11272;50.104;8.754;2023-02-28T04:01:57;3.93;;;3.00;;
22205;SDS011;11272;50.104;8.754;2023-02-28T04:04:25;4.63;;;2.90;;
22205;SDS011;11272;50.104;8.754;2023-02-28T04:06:51;4.50;;;3.27;;
22205;SDS011;11272;50.104;8.754;2023-02-28T04:09:18;6.77;;;3.00;;
22205;SDS011;11272;50.104;8.754;2023-02-28T04:11:50;6.00;;;3.17;;
22205;SDS011;11272;50.104;8.754;2023-02-28T04:14:17;4.67;;;3.70;;
22205;SDS011;11272;50.104;8.754;2023-02-28T04:16:43;5.43;;;3.07;;
22205;SDS011;11272;50.104;8.754;2023-02-28T04:19:10;5.70;;;3.20;;
22205;SDS011;11272;50.104;8.754;2023-02-28T04:21:38;5.53;;;3.33;;
22205;SDS011;11272;50.104;8.754;2023-02-28T04:24:06;4.20;;;2.67;;
22205;SDS011;11272;50.104;8.754;2023-02-28T04:26:33;3.80;;;2.93;;
22205;SDS011;11272;50.104;8.754;2023-02-28T04:29:01;4.70;;;3.00;;
22205;SDS011;11272;50.104;8.754;2023-02-28T04:31:28;3.60;;;2.43;;
22205;SDS011;11272;50.104;8.754;2023-02-28T04:33:54;5.20;;;3.10;;
22205;SDS011;11272;50.104;8.754;2023-02-28T04:36:19;4.60;;;2.90;;
22205;SDS011;11272;50.104;8.754;2023-02-28T04:38:45;4.80;;;3.30;;
22205;SDS011;11272;50.104;8.754;2023-02-28T04:41:12;3.73;;;2.80;;
22205;SDS011;11272;50.104;8.754;2023-02-28T04:43:38;5.33;;;3.30;;
22205;SDS011;11272;50.104;8.754;2023-02-28T04:46:04;3.37;;;2.43;;
22205;SDS011;11272;50.104;8.754;2023-02-28T04:48:31;3.80;;;2.67;;
22205;SDS011;11272;50.104;8.754;2023-02-28T04:51:05;7.40;;;3.00;;
22205;SDS011;11272;50.104;8.754;2023-02-28T04:53:32;2.80;;;2.20;;
22205;SDS011;11272;50.104;8.754;2023-02-28T04:55:58;3.60;;;2.50;;
22205;SDS011;11272;50.104;8.754;2023-02-28T04:58:25;5.47;;;2.77;;
22205;SDS011;11272;50.104;8.754;2023-02-28T05:00:51;4.33;;;3.00;;
22205;SDS011;11272;50.104;8.754;2023-02-28T05:03:18;3.93;;;2.83;;
22205;SDS011;11272;50.104;8.754;2023-02-28T05:05:46;5.20;;;3.10;;
22205;SDS011;11272;50.104;8.754;2023-02-28T05:08:11;7.43;;;2.87;;
22205;SDS011;11272;50.104;8.754;2023-02-28T05:10:37;6.37;;;2.53;;
22205;SDS011;11272;50.104;8.754;2023-02-28T05:13:03;3.63;;;2.30;;
22205;SDS011;11272;50.104;8.754;2023-02-28T05:15:28;6.43;;;3.13;;
22205;SDS011;11272;50.104;8.754;2023-02-28T05:17:54;4.47;;;2.83;;
22205;SDS011;11272;50.104;8.754;2023-02-28T05:20:19;3.77;;;2.60;;
22205;SDS011;11272;50.104;8.754;2023-02-28T05:22:46;5.87;;;3.40;;
22205;SDS011;11272;50.104;8.754;2023-02-28T05:25:13;4.03;;;2.80;;
22205;SDS011;11272;50.104;8.754;2023-02-28T05:27:42;2.93;;;2.57;;
22205;SDS011;11272;50.104;8.754;2023-02-28T05:30:09;6.23;;;3.17;;
22205;SDS011;11272;50.104;8.754;2023-02-28T05:32:38;3.63;;;2.33;;
22205;SDS011;11272;50.104;8.754;2023-02-28T05:35:08;4.63;;;2.87;;
22205;SDS011;11272;50.104;8.754;2023-02-28T05:37:35;3.93;;;2.80;;
22205;SDS011;11272;50.104;8.754;2023-02-28T05:40:01;4.30;;;2.67;;
22205;SDS011;11272;50.104;8.754;2023-02-28T05:42:26;5.83;;;2.60;;
22205;SDS011;11272;50.104;8.754;2023-02-28T05:44:52;6.00;;;3.17;;
22205;SDS011;11272;50.104;8.754;2023-02-28T05:47:18;4.20;;;2.57;;
22205;SDS011;11272;50.104;8.754;2023-02-28T05:49:44;6.57;;;3.10;;
22205;SDS011;11272;50.104;8.754;2023-02-28T05:52:09;4.73;;;3.13;;
22205;SDS011;11272;50.104;8.754;2023-02-28T05:54:35;5.97;;;3.00;;
22205;SDS011;11272;50.104;8.754;2023-02-28T05:57:01;4.50;;;2.60;;
22205;SDS011;11272;50.104;8.754;2023-02-28T05:59:26;3.77;;;2.40;;
22205;SDS011;11272;50.104;8.754;2023-02-28T06:01:52;5.80;;;3.03;;
22205;SDS011;11272;50.104;8.754;2023-02-28T06:04:19;4.67;;;3.10;;
22205;SDS011;11272;50.104;8.754;2023-02-28T06:06:46;3.80;;;2.47;;
22205;SDS011;11272;50.104;8.754;2023-02-28T06:09:13;2.73;;;2.47;;
22205;SDS011;11272;50.104;8.754;2023-02-28T06:11:40;5.23;;;2.63;;
22205;SDS011;11272;50.104;8.754;2023-02-28T06:14:06;3.97;;;2.73;;
22205;SDS011;11272;50.104;8.754;2023-02-28T06:16:33;6.23;;;3.73;;
22205;SDS011;11272;50.104;8.754;2023-02-28T06:19:00;5.23;;;2.50;;
22205;SDS011;11272;50.104;8.754;2023-02-28T06:21:28;5.57;;;2.90;;
22205;SDS011;11272;50.104;8.754;2023-02-28T06:23:55;7.57;;;3.00;;
22205;SDS011;11272;50.104;8.754;2023-02-28T06:26:21;5.77;;;3.70;;
22205;SDS011;11272;50.104;8.754;2023-02-28T06:28:46;4.63;;;3.03;;
22205;SDS011;11272;50.104;8.754;2023-02-28T06:31:13;4.00;;;2.63;;
22205;SDS011;11272;50.104;8.754;2023-02-28T06:33:41;5.33;;;3.17;;
22205;SDS011;11272;50.104;8.754;2023-02-28T06:36:10;5.43;;;3.20;;
22205;SDS011;11272;50.104;8.754;2023-02-28T06:38:38;7.37;;;3.13;;
22205;SDS011;11272;50.104;8.754;2023-02-28T06:41:04;4.83;;;2.97;;
22205;SDS011;11272;50.104;8.754;2023-02-28T06:43:32;8.93;;;3.27;;
22205;SDS011;11272;50.104;8.754;2023-02-28T06:46:00;4.93;;;3.13;;
22205;SDS011;11272;50.104;8.754;2023-02-28T06:48:27;7.43;;;3.20;;
22205;SDS011;11272;50.104;8.754;2023-02-28T06:51:06;5.53;;;3.00;;
22205;SDS011;11272;50.104;8.754;2023-02-28T06:53:34;4.97;;;2.77;;
22205;SDS011;11272;50.104;8.754;2023-02-28T06:56:03;5.80;;;2.93;;
22205;SDS011;11272;50.104;8.754;2023-02-28T06:58:33;5.53;;;2.97;;
22205;SDS011;11272;50.104;8.754;2023-02-28T07:00:59;6.60;;;3.13;;
22205;SDS011;11272;50.104;8.754;2023-02-28T07:03:25;4.10;;;2.67;;
22205;SDS011;11272;50.104;8.754;2023-02-28T07:05:50;5.17;;;3.00;;
22205;SDS011;11272;50.104;8.754;2023-02-28T07:08:16;4.53;;;2.80;;
22205;SDS011;11272;50.104;8.754;2023-02-28T07:10:41;4.43;;;3.17;;
22205;SDS011;11272;50.104;8.754;2023-02-28T07:13:07;5.10;;;3.20;;
22205;SDS011;11272;50.104;8.754;2023-02-28T07:15:34;5.57;;;3.10;;
22205;SDS011;11272;50.104;8.754;2023-02-28T07:18:02;7.83;;;2.93;;
22205;SDS011;11272;50.104;8.754;2023-02-28T07:20:28;4.67;;;3.07;;
22205;SDS011;11272;50.104;8.754;2023-02-28T07:22:54;4.77;;;3.13;;
22205;SDS011;11272;50.104;8.754;2023-02-28T07:25:25;5.00;;;2.97;;
22205;SDS011;11272;50.104;8.754;2023-02-28T07:27:52;5.00;;;3.17;;
22205;SDS011;11272;50.104;8.754;2023-02-28T07:30:19;5.23;;;3.23;;
22205;SDS011;11272;50.104;8.754;2023-02-28T07:32:45;5.50;;;3.10;;
22205;SDS011;11272;50.104;8.754;2023-02-28T07:35:11;4.13;;;3.03;;
22205;SDS011;11272;50.104;8.754;2023-02-28T07:37:36;5.73;;;3.23;;
22205;SDS011;11272;50.104;8.754;2023-02-28T07:40:03;5.57;;;2.90;;
22205;SDS011;11272;50.104;8.754;2023-02-28T07:42:31;4.90;;;2.83;;
22205;SDS011;11272;50.104;8.754;2023-02-28T07:44:57;7.13;;;3.40;;
22205;SDS011;11272;50.104;8.754;2023-02-28T07:47:24;5.77;;;3.13;;
22205;SDS011;11272;50.104;8.754;2023-02-28T07:49:49;6.43;;;3.67;;
22205;SDS011;11272;50.104;8.754;2023-02-28T07:52:15;6.00;;;2.90;;
22205;SDS011;11272;50.104;8.754;2023-02-28T07:54:40;5.17;;;3.10;;
22205;SDS011;11272;50.104;8.754;2023-02-28T07:57:06;6.37;;;3.70;;
22205;SDS011;11272;50.104;8.754;2023-02-28T07:59:31;6.30;;;3.47;;
22205;SDS011;11272;50.104;8.754;2023-02-28T08:01:57;4.87;;;3.33;;
22205;SDS011;11272;50.104;8.754;2023-02-28T08:04:24;5.33;;;3.33;;
22205;SDS011;11272;50.104;8.754;2023-02-28T08:06:50;4.60;;;2.63;;
22205;SDS011;11272;50.104;8.754;2023-02-28T08:09:18;8.13;;;3.17;;
22205;SDS011;11272;50.104;8.754;2023-02-28T08:11:46;7.50;;;3.17;;
22205;SDS011;11272;50.104;8.754;2023-02-28T08:14:12;5.00;;;3.03;;
22205;SDS011;11272;50.104;8.754;2023-02-28T08:16:37;4.63;;;3.30;;
22205;SDS011;11272;50.104;8.754;2023-02-28T08:19:04;5.60;;;3.33;;
22205;SDS011;11272;50.104;8.754;2023-02-28T08:21:30;5.00;;;3.13;;
22205;SDS011;11272;50.104;8.754;2023-02-28T08:23:56;8.73;;;3.50;;
22205;SDS011;11272;50.104;8.754;2023-02-28T08:26:22;20.67;;;6.13;;
22205;SDS011;11272;50.104;8.754;2023-02-28T08:28:48;5.50;;;2.90;;
22205;SDS011;11272;50.104;8.754;2023-02-28T08:31:14;4.93;;;3.00;;
22205;SDS011;11272;50.104;8.754;2023-02-28T08:33:41;5.00;;;3.10;;
22205;SDS011;11272;50.104;8.754;2023-02-28T08:36:08;6.73;;;3.03;;
22205;SDS011;11272;50.104;8.754;2023-02-28T08:38:40;5.40;;;3.20;;
22205;SDS011;11272;50.104;8.754;2023-02-28T08:41:13;4.10;;;2.83;;
22205;SDS011;11272;50.104;8.754;2023-02-28T08:43:39;7.40;;;3.13;;
22205;SDS011;11272;50.104;8.754;2023-02-28T08:46:06;3.83;;;2.60;;
22205;SDS011;11272;50.104;8.754;2023-02-28T08:48:33;4.07;;;2.97;;
22205;SDS011;11272;50.104;8.754;2023-02-28T08:51:03;5.30;;;3.00;;
22205;SDS011;11272;50.104;8.754;2023-02-28T08:53:31;4.57;;;3.20;;
22205;SDS011;11272;50.104;8.754;2023-02-28T08:56:04;6.10;;;3.17;;
22205;SDS011;11272;50.104;8.754;2023-02-28T08:58:32;4.47;;;2.90;;
22205;SDS011;11272;50.104;8.754;2023-02-28T09:00:59;5.57;;;3.20;;
22205;SDS011;11272;50.104;8.754;2023-02-28T09:03:27;5.87;;;2.70;;
22205;SDS011;11272;50.104;8.754;2023-02-28T09:05:56;4.00;;;2.97;;
22205;SDS011;11272;50.104;8.754;2023-02-28T09:08:25;4.50;;;2.97;;
22205;SDS011;11272;50.104;8.754;2023-02-28T09:10:52;5.07;;;3.13;;
22205;SDS011;11272;50.104;8.754;2023-02-28T09:13:19;3.97;;;2.73;;
22205;SDS011;11272;50.104;8.754;2023-02-28T09:15:45;3.20;;;2.60;;
22205;SDS011;11272;50.104;8.754;2023-02-28T09:18:11;3.77;;;2.93;;
22205;SDS011;11272;50.104;8.754;2023-02-28T09:20:38;4.63;;;3.07;;
22205;SDS011;11272;50.104;8.754;2023-02-28T09:23:05;4.93;;;3.00;;
22205;SDS011;11272;50.104;8.754;2023-02-28T09:25:31;4.90;;;3.10;;
22205;SDS011;11272;50.104;8.754;2023-02-28T09:27:57;4.30;;;3.20;;
22205;SDS011;11272;50.104;8.754;2023-02-28T09:30:23;6.27;;;3.20;;
22205;SDS011;11272;50.104;8.754;2023-02-28T09:32:48;4.03;;;3.00;;
22205;SDS011;11272;50.104;8.754;2023-02-28T09:35:17;6.20;;;3.87;;
22205;SDS011;11272;50.104;8.754;2023-02-28T09:37:44;6.00;;;3.10;;
22205;SDS011;11272;50.104;8.754;2023-02-28T09:42:51;6.80;;;3.47;;
22205;SDS011;11272;50.104;8.754;2023-02-28T09:45:22;4.80;;;3.30;;
22205;SDS011;11272;50.104;8.754;2023-02-28T09:47:49;8.60;;;3.40;;
22205;SDS011;11272;50.104;8.754;2023-02-28T09:52:54;4.60;;;3.30;;
22205;SDS011;11272;50.104;8.754;2023-02-28T09:57:53;5.27;;;3.30;;
22205;SDS011;11272;50.104;8.754;2023-02-28T10:00:27;6.00;;;3.87;;
22205;SDS011;11272;50.104;8.754;2023-02-28T10:11:01;8.07;;;3.77;;
22205;SDS011;11272;50.104;8.754;2023-02-28T10:16:27;5.23;;;3.60;;
22205;SDS011;11272;50.104;8.754;2023-02-28T10:21:31;5.47;;;3.30;;
22205;SDS011;11272;50.104;8.754;2023-02-28T10:24:46;6.73;;;4.07;;
22205;SDS011;11272;50.104;8.754;2023-02-28T10:27:01;6.47;;;4.33;;
22205;SDS011;11272;50.104;8.754;2023-02-28T10:29:44;7.07;;;3.93;;
22205;SDS011;11272;50.104;8.754;2023-02-28T10:32:17;6.80;;;4.17;;
22205;SDS011;11272;50.104;8.754;2023-02-28T10:35:09;5.70;;;3.60;;
22205;SDS011;11272;50.104;8.754;2023-02-28T10:37:39;6.80;;;3.70;;
22205;SDS011;11272;50.104;8.754;2023-02-28T10:40:06;7.60;;;3.90;;
22205;SDS011;11272;50.104;8.754;2023-02-28T10:43:02;6.27;;;3.20;;
22205;SDS011;11272;50.104;8.754;2023-02-28T10:45:51;5.00;;;3.30;;
22205;SDS011;11272;50.104;8.754;2023-02-28T10:51:05;5.40;;;3.40;;
22205;SDS011;11272;50.104;8.754;2023-02-28T10:56:15;4.87;;;3.43;;
22205;SDS011;11272;50.104;8.754;2023-02-28T11:01:45;8.23;;;4.27;;
22205;SDS011;11272;50.104;8.754;2023-02-28T11:04:20;5.17;;;3.40;;
22205;SDS011;11272;50.104;8.754;2023-02-28T11:09:33;6.30;;;3.90;;
22205;SDS011;11272;50.104;8.754;2023-02-28T11:12:07;5.43;;;3.80;;
22205;SDS011;11272;50.104;8.754;2023-02-28T11:14:48;5.43;;;3.43;;
22205;SDS011;11272;50.104;8.754;2023-02-28T11:17:21;6.40;;;3.70;;
22205;SDS011;11272;50.104;8.754;2023-02-28T11:19:56;5.67;;;4.13;;
22205;SDS011;11272;50.104;8.754;2023-02-28T11:22:30;6.13;;;4.30;;
22205;SDS011;11272;50.104;8.754;2023-02-28T11:25:02;5.33;;;3.40;;
22205;SDS011;11272;50.104;8.754;2023-02-28T11:27:41;5.83;;;3.87;;
22205;SDS011;11272;50.104;8.754;2023-02-28T11:30:22;4.50;;;3.83;;
22205;SDS011;11272;50.104;8.754;2023-02-28T11:32:49;4.73;;;3.30;;
22205;SDS011;11272;50.104;8.754;2023-02-28T11:35:17;7.30;;;4.37;;
22205;SDS011;11272;50.104;8.754;2023-02-28T11:37:48;5.37;;;3.70;;
22205;SDS011;11272;50.104;8.754;2023-02-28T11:40:57;6.37;;;4.17;;
22205;SDS011;11272;50.104;8.754;2023-02-28T11:43:25;6.50;;;4.03;;
22205;SDS011;11272;50.104;8.754;2023-02-28T11:49:36;5.87;;;4.00;;
22205;SDS011;11272;50.104;8.754;2023-02-28T12:00:40;5.13;;;3.87;;
22205;SDS011;11272;50.104;8.754;2023-02-28T12:03:16;6.37;;;3.63;;
22205;SDS011;11272;50.104;8.754;2023-02-28T12:08:54;6.07;;;4.00;;
22205;SDS011;11272;50.104;8.754;2023-02-28T12:11:39;6.40;;;4.47;;
22205;SDS011;11272;50.104;8.754;2023-02-28T12:19:43;5.97;;;4.23;;
22205;SDS011;11272;50.104;8.754;2023-02-28T12:28:12;5.33;;;4.47;;
22205;SDS011;11272;50.104;8.754;2023-02-28T12:30:52;6.63;;;4.17;;
22205;SDS011;11272;50.104;8.754;2023-02-28T12:33:20;6.03;;;4.67;;
22205;SDS011;11272;50.104;8.754;2023-02-28T12:35:57;5.47;;;4.40;;
22205;SDS011;11272;50.104;8.754;2023-02-28T12:38:26;6.80;;;4.90;;
22205;SDS011;11272;50.104;8.754;2023-02-28T12:40:56;7.93;;;4.37;;
22205;SDS011;11272;50.104;8.754;2023-02-28T12:43:28;6.17;;;4.53;;
22205;SDS011;11272;50.104;8.754;2023-02-28T12:46:02;5.83;;;4.80;;
22205;SDS011;11272;50.104;8.754;2023-02-28T12:48:46;6.43;;;4.80;;
22205;SDS011;11272;50.104;8.754;2023-02-28T12:51:15;6.53;;;4.57;;
22205;SDS011;11272;50.104;8.754;2023-02-28T12:56:33;6.77;;;4.53;;
22205;SDS011;11272;50.104;8.754;2023-02-28T13:04:58;8.07;;;4.13;;
22205;SDS011;11272;50.104;8.754;2023-02-28T13:10:16;6.23;;;4.50;;
22205;SDS011;11272;50.104;8.754;2023-02-28T13:12:47;6.83;;;4.77;;
22205;SDS011;11272;50.104;8.754;2023-02-28T13:15:18;8.40;;;5.30;;
22205;SDS011;11272;50.104;8.754;2023-02-28T13:17:51;6.77;;;4.87;;
22205;SDS011;11272;50.104;8.754;2023-02-28T13:20:29;6.63;;;5.07;;
22205;SDS011;11272;50.104;8.754;2023-02-28T13:23:01;11.03;;;5.20;;
22205;SDS011;11272;50.104;8.754;2023-02-28T13:28:10;5.30;;;4.33;;
22205;SDS011;11272;50.104;8.754;2023-02-28T13:33:27;10.70;;;5.50;;
22205;SDS011;11272;50.104;8.754;2023-02-28T13:44:04;6.97;;;4.90;;
22205;SDS011;11272;50.104;8.754;2023-02-28T13:57:42;8.10;;;4.97;;
22205;SDS011;11272;50.104;8.754;2023-02-28T14:08:44;6.13;;;4.97;;
22205;SDS011;11272;50.104;8.754;2023-02-28T14:13:58;7.87;;;4.57;;
22205;SDS011;11272;50.104;8.754;2023-02-28T14:16:35;9.10;;;5.30;;
22205;SDS011;11272;50.104;8.754;2023-02-28T14:19:09;7.97;;;5.20;;
22205;SDS011;11272;50.104;8.754;2023-02-28T14:21:40;9.63;;;6.40;;
22205;SDS011;11272;50.104;8.754;2023-02-28T14:29:55;9.23;;;5.57;;
22205;SDS011;11272;50.104;8.754;2023-02-28T14:35:43;10.40;;;5.53;;
22205;SDS011;11272;50.104;8.754;2023-02-28T14:38:31;7.97;;;4.67;;
22205;SDS011;11272;50.104;8.754;2023-02-28T14:41:00;7.33;;;4.80;;
22205;SDS011;11272;50.104;8.754;2023-02-28T14:43:32;7.77;;;4.80;;
22205;SDS011;11272;50.104;8.754;2023-02-28T14:45:58;9.27;;;5.40;;
22205;SDS011;11272;50.104;8.754;2023-02-28T14:48:26;8.80;;;5.40;;
22205;SDS011;11272;50.104;8.754;2023-02-28T14:50:54;7.50;;;5.23;;
22205;SDS011;11272;50.104;8.754;2023-02-28T14:53:23;8.80;;;5.30;;
22205;SDS011;11272;50.104;8.754;2023-02-28T14:55:52;7.57;;;5.03;;
22205;SDS011;11272;50.104;8.754;2023-02-28T14:58:22;7.37;;;5.23;;
22205;SDS011;11272;50.104;8.754;2023-02-28T15:00:51;8.13;;;5.17;;
22205;SDS011;11272;50.104;8.754;2023-02-28T15:05:59;7.67;;;4.77;;
22205;SDS011;11272;50.104;8.754;2023-02-28T15:08:27;8.37;;;5.17;;
22205;SDS011;11272;50.104;8.754;2023-02-28T15:11:01;6.17;;;4.87;;
22205;SDS011;11272;50.104;8.754;2023-02-28T15:13:36;11.27;;;5.43;;
22205;SDS011;11272;50.104;8.754;2023-02-28T15:16:13;7.70;;;5.20;;
22205;SDS011;11272;50.104;8.754;2023-02-28T15:18:43;9.90;;;5.53;;
22205;SDS011;11272;50.104;8.754;2023-02-28T15:21:36;8.47;;;4.97;;
22205;SDS011;11272;50.104;8.754;2023-02-28T15:24:11;10.63;;;5.00;;
22205;SDS011;11272;50.104;8.754;2023-02-28T15:26:51;6.60;;;4.93;;
22205;SDS011;11272;50.104;8.754;2023-02-28T15:29:26;7.37;;;4.73;;
22205;SDS011;11272;50.104;8.754;2023-02-28T15:32:00;8.77;;;5.10;;
22205;SDS011;11272;50.104;8.754;2023-02-28T15:34:37;8.97;;;5.17;;
22205;SDS011;11272;50.104;8.754;2023-02-28T15:37:24;10.40;;;5.13;;
22205;SDS011;11272;50.104;8.754;2023-02-28T15:39:51;8.40;;;5.43;;
22205;SDS011;11272;50.104;8.754;2023-02-28T15:42:19;6.73;;;5.00;;
22205;SDS011;11272;50.104;8.754;2023-02-28T15:44:46;7.90;;;5.30;;
22205;SDS011;11272;50.104;8.754;2023-02-28T15:47:16;6.73;;;5.03;;
22205;SDS011;11272;50.104;8.754;2023-02-28T15:49:57;10.80;;;5.20;;
22205;SDS011;11272;50.104;8.754;2023-02-28T15:52:34;7.97;;;5.72;;
22205;SDS011;11272;50.104;8.754;2023-02-28T15:55:17;8.77;;;5.10;;
22205;SDS011;11272;50.104;8.754;2023-02-28T15:57:45;9.73;;;5.57;;
22205;SDS011;11272;50.104;8.754;2023-02-28T16:00:17;9.87;;;5.37;;
22205;SDS011;11272;50.104;8.754;2023-02-28T16:02:45;11.57;;;5.90;;
22205;SDS011;11272;50.104;8.754;2023-02-28T16:07:38;7.03;;;4.80;;
22205;SDS011;11272;50.104;8.754;2023-02-28T16:10:05;9.07;;;5.40;;
22205;SDS011;11272;50.104;8.754;2023-02-28T16:12:33;11.47;;;6.13;;
22205;SDS011;11272;50.104;8.754;2023-02-28T16:15:02;13.30;;;5.63;;
22205;SDS011;11272;50.104;8.754;2023-02-28T16:17:33;7.57;;;5.37;;
22205;SDS011;11272;50.104;8.754;2023-02-28T16:20:05;10.83;;;5.47;;
22205;SDS011;11272;50.104;8.754;2023-02-28T16:22:41;8.97;;;5.37;;
22205;SDS011;11272;50.104;8.754;2023-02-28T16:25:11;10.80;;;5.67;;
22205;SDS011;11272;50.104;8.754;2023-02-28T16:27:44;9.50;;;5.90;;
22205;SDS011;11272;50.104;8.754;2023-02-28T16:30:19;8.90;;;5.67;;
22205;SDS011;11272;50.104;8.754;2023-02-28T16:32:50;9.77;;;5.90;;
22205;SDS011;11272;50.104;8.754;2023-02-28T16:35:18;9.17;;;5.40;;
22205;SDS011;11272;50.104;8.754;2023-02-28T16:37:44;9.10;;;5.50;;
22205;SDS011;11272;50.104;8.754;2023-02-28T16:40:14;7.97;;;5.43;;
22205;SDS011;11272;50.104;8.754;2023-02-28T16:42:46;14.17;;;5.40;;
22205;SDS011;11272;50.104;8.754;2023-02-28T16:45:14;8.77;;;5.67;;
22205;SDS011;11272;50.104;8.754;2023-02-28T16:47:44;9.67;;;5.73;;
22205;SDS011;11272;50.104;8.754;2023-02-28T16:50:21;8.73;;;5.00;;
22205;SDS011;11272;50.104;8.754;2023-02-28T16:52:51;10.60;;;5.50;;
22205;SDS011;11272;50.104;8.754;2023-02-28T16:55:18;11.30;;;5.90;;
22205;SDS011;11272;50.104;8.754;2023-02-28T16:57:44;9.10;;;5.33;;
22205;SDS011;11272;50.104;8.754;2023-02-28T17:00:15;7.20;;;5.00;;
22205;SDS011;11272;50.104;8.754;2023-02-28T17:02:41;11.93;;;5.53;;
22205;SDS011;11272;50.104;8.754;2023-02-28T17:05:08;7.37;;;5.33;;
22205;SDS011;11272;50.104;8.754;2023-02-28T17:07:35;9.33;;;5.77;;
22205;SDS011;11272;50.104;8.754;2023-02-28T17:10:01;14.37;;;6.10;;
22205;SDS011;11272;50.104;8.754;2023-02-28T17:12:35;17.00;;;6.23;;
22205;SDS011;11272;50.104;8.754;2023-02-28T17:15:01;12.40;;;6.00;;
22205;SDS011;11272;50.104;8.754;2023-02-28T17:17:26;8.57;;;5.40;;
22205;SDS011;11272;50.104;8.754;2023-02-28T17:19:53;9.90;;;5.83;;
22205;SDS011;11272;50.104;8.754;2023-02-28T17:22:19;11.20;;;5.73;;
22205;SDS011;11272;50.104;8.754;2023-02-28T17:24:44;11.83;;;6.03;;
22205;SDS011;11272;50.104;8.754;2023-02-28T17:27:11;17.93;;;7.80;;
22205;SDS011;11272;50.104;8.754;2023-02-28T17:29:41;9.17;;;5.90;;